Time;durP1;ratioP1;P1;durP2;ratioP2;P2;SDS_P1;SDS_P2;PMS_P1;PMS_P2;Temp;Humidity;BMP_temperature;BMP_pressure;BME280_temperature;BME280_humidity;BME280_pressure;Samples;Min_cycle;Max_cycle;Signal;HPM_P1;HPM_P2
2021/12/09 00:01:00;;;;;;;;;1.00;1.00;;;;;8.79;56.35;100110.41;5034260;28;45790;-65
2021/12/09 00:03:28;;;;;;;;;1.00;1.00;;;;;8.83;56.56;100117.34;5019264;28;45425;-65
2021/12/09 00:05:55;;;;;;;;;0.75;0.75;;;;;8.82;56.13;100125.38;5019117;28;45310;-65
2021/12/09 00:08:21;;;;;;;;;1.25;0.75;;;;;8.80;56.31;100114.78;5017945;28;45292;-65
2021/12/09 00:10:47;;;;;;;;;2.00;0.00;;;;;8.71;56.21;100108.00;5020589;28;45541;-65
2021/12/09 00:13:12;;;;;;;;;0.00;0.00;;;;;8.76;56.27;100118.47;5022748;28;45307;-65
2021/12/09 00:15:38;;;;;;;;;0.00;0.00;;;;;8.74;56.27;100108.81;5022133;28;45257;-65
2021/12/09 00:18:03;;;;;;;;;0.50;0.50;;;;;8.77;56.54;100114.91;5022937;28;45234;-66
2021/12/09 00:20:29;;;;;;;;;0.00;0.00;;;;;8.79;56.20;100120.19;5020975;28;45414;-65
2021/12/09 00:22:54;;;;;;;;;0.25;0.25;;;;;8.75;55.82;100119.41;5037416;28;48074;-65
2021/12/09 00:25:19;;;;;;;;;1.00;1.00;;;;;8.65;56.37;100110.88;5022337;28;45210;-65
2021/12/09 00:27:45;;;;;;;;;0.00;0.00;;;;;8.65;56.37;100124.19;5022741;28;45344;-65
2021/12/09 00:30:11;;;;;;;;;0.25;0.00;;;;;8.68;56.20;100131.19;5022271;28;45225;-65
2021/12/09 00:32:41;;;;;;;;;0.00;0.00;;;;;8.69;56.17;100119.63;5022580;28;46214;-65
2021/12/09 00:35:07;;;;;;;;;0.00;0.00;;;;;8.68;56.51;100118.75;5021937;28;45293;-65
2021/12/09 00:37:38;;;;;;;;;0.25;0.25;;;;;8.65;56.51;100124.19;5022112;28;45396;-65
2021/12/09 00:40:07;;;;;;;;;0.00;0.00;;;;;8.64;56.43;100126.91;5037262;28;45335;-65
2021/12/09 00:42:32;;;;;;;;;1.00;0.00;;;;;8.62;56.60;100118.97;5022180;28;47731;-65
2021/12/09 00:44:57;;;;;;;;;0.25;0.00;;;;;8.57;56.59;100110.28;5022080;28;45142;-65
2021/12/09 00:47:23;;;;;;;;;0.00;0.00;;;;;8.60;56.61;100128.78;5022380;28;45228;-66
2021/12/09 00:49:49;;;;;;;;;0.00;0.00;;;;;8.58;56.67;100132.41;5021892;28;45318;-65
2021/12/09 00:52:16;;;;;;;;;0.25;0.00;;;;;8.47;56.92;100106.16;5021386;28;46092;-65
2021/12/09 00:54:42;;;;;;;;;0.50;0.00;;;;;8.60;57.00;100135.88;5021013;28;45559;-65
2021/12/09 00:57:09;;;;;;;;;0.00;0.00;;;;;8.61;56.72;100137.66;5022269;28;45314;-65
2021/12/09 00:59:34;;;;;;;;;1.00;1.00;;;;;8.58;56.71;100129.75;5021818;28;45528;-65
2021/12/09 01:02:00;;;;;;;;;0.25;0.00;;;;;8.63;56.95;100135.78;5037334;28;46126;-65
2021/12/09 01:04:26;;;;;;;;;1.00;1.00;;;;;8.66;56.87;100151.66;5021608;28;45635;-65
2021/12/09 01:06:51;;;;;;;;;0.00;0.00;;;;;8.67;56.92;100148.06;5021925;28;45354;-65
2021/12/09 01:09:17;;;;;;;;;1.00;1.00;;;;;8.66;56.50;100143.69;5021588;28;45224;-65
2021/12/09 01:11:43;;;;;;;;;1.00;1.00;;;;;8.59;56.65;100126.19;5021478;28;46103;-65
2021/12/09 01:14:09;;;;;;;;;0.75;0.00;;;;;8.61;56.88;100137.66;5021511;28;45481;-65
2021/12/09 01:16:34;;;;;;;;;0.50;0.50;;;;;8.60;56.76;100133.22;5021815;28;45248;-65
2021/12/09 01:19:00;;;;;;;;;1.75;0.25;;;;;8.57;56.73;100128.91;5021676;28;45549;-65
2021/12/09 01:21:25;;;;;;;;;0.00;0.00;;;;;8.60;56.82;100147.41;5020282;28;46333;-65
2021/12/09 01:23:50;;;;;;;;;1.00;1.00;;;;;8.61;56.51;100141.16;5021038;28;45227;-65
2021/12/09 01:26:16;;;;;;;;;1.25;0.50;;;;;8.52;56.83;100131.72;5021917;28;45220;-65
2021/12/09 01:28:49;;;;;;;;;0.00;0.00;;;;;8.57;56.58;100150.19;5021466;28;45260;-65
2021/12/09 01:31:29;;;;;;;;;0.25;0.25;;;;;8.57;57.04;100152.84;5021102;28;46150;-65
2021/12/09 01:34:00;;;;;;;;;0.00;0.00;;;;;8.61;56.80;100165.09;5021389;28;45653;-65
2021/12/09 01:36:26;;;;;;;;;0.00;0.00;;;;;8.51;56.87;100148.56;5021262;28;45251;-65
2021/12/09 01:38:51;;;;;;;;;0.00;0.00;;;;;8.51;56.96;100159.22;5021426;28;45152;-65
2021/12/09 01:41:17;;;;;;;;;2.00;0.00;;;;;8.53;56.77;100167.16;5021173;28;45434;-65
2021/12/09 01:43:43;;;;;;;;;1.00;0.75;;;;;8.53;57.09;100168.00;5021494;28;45451;-65
2021/12/09 01:46:11;;;;;;;;;1.00;0.00;;;;;8.53;56.71;100168.00;5021169;28;45507;-65
2021/12/09 01:48:39;;;;;;;;;2.00;0.00;;;;;8.51;56.56;100159.22;5021485;28;45283;-65
2021/12/09 01:51:05;;;;;;;;;0.50;0.50;;;;;8.53;57.01;100162.69;5020223;28;46365;-65
2021/12/09 01:53:30;;;;;;;;;0.00;0.00;;;;;8.53;57.06;100168.00;5020932;28;45156;-66
2021/12/09 01:56:02;;;;;;;;;2.75;1.00;;;;;8.56;56.80;100179.50;5020832;28;45212;-65
2021/12/09 01:58:28;;;;;;;;;0.00;0.00;;;;;8.50;56.72;100178.78;5020840;28;45169;-65
2021/12/09 02:00:54;;;;;;;;;1.00;1.00;;;;;8.55;57.08;100189.25;5020835;28;46670;-65
2021/12/09 02:03:20;;;;;;;;;1.00;1.00;;;;;8.50;57.08;100176.13;5021104;28;45262;-66
2021/12/09 02:05:45;;;;;;;;;2.00;1.00;;;;;8.52;56.91;100187.56;5020997;28;45335;-65
2021/12/09 02:08:13;;;;;;;;;1.00;1.00;;;;;8.51;57.11;100177.84;5020876;28;45207;-65
2021/12/09 02:10:39;;;;;;;;;1.00;0.00;;;;;8.41;56.81;100171.06;5020216;28;46027;-65
2021/12/09 02:13:05;;;;;;;;;2.25;1.00;;;;;8.46;56.98;100174.47;5020906;28;45284;-65
2021/12/09 02:15:30;;;;;;;;;1.75;1.00;;;;;8.47;57.04;100175.31;5020674;28;45420;-65
2021/12/09 02:17:56;;;;;;;;;0.50;0.50;;;;;8.51;57.10;100182.31;5020963;28;45362;-65
2021/12/09 02:20:27;;;;;;;;;1.00;1.00;;;;;8.49;56.92;100182.34;5020456;28;45253;-65
2021/12/09 02:22:53;;;;;;;;;1.00;1.00;;;;;8.47;56.84;100184.19;5020156;28;45472;-65
2021/12/09 02:25:18;;;;;;;;;1.25;1.00;;;;;8.49;57.23;100181.50;5020513;28;45323;-65
2021/12/09 02:27:44;;;;;;;;;0.25;0.25;;;;;8.46;56.97;100186.91;5020728;28;45615;-65
2021/12/09 02:30:13;;;;;;;;;1.00;0.75;;;;;8.41;57.16;100187.00;5020124;28;45333;-65
2021/12/09 02:32:39;;;;;;;;;1.00;1.00;;;;;8.38;57.24;100181.78;5020309;28;45467;-65
2021/12/09 02:35:05;;;;;;;;;0.50;0.50;;;;;8.38;57.26;100183.59;5020565;28;45193;-65
2021/12/09 02:37:30;;;;;;;;;2.00;1.00;;;;;8.39;57.31;100183.53;5020182;28;45146;-65
2021/12/09 02:39:57;;;;;;;;;3.00;1.00;;;;;8.41;57.22;100184.34;5020092;28;45978;-65
2021/12/09 02:42:24;;;;;;;;;2.00;1.00;;;;;8.42;57.33;100185.22;5020292;28;45503;-65
2021/12/09 02:44:50;;;;;;;;;1.00;1.00;;;;;8.40;57.01;100182.59;5020300;28;45341;-65
2021/12/09 02:47:15;;;;;;;;;0.00;0.00;;;;;8.38;57.25;100194.22;5020371;28;45489;-65
2021/12/09 02:49:41;;;;;;;;;1.00;1.00;;;;;8.34;57.16;100193.47;5019649;28;46186;-65
2021/12/09 02:52:06;;;;;;;;;0.00;0.00;;;;;8.30;56.83;100182.06;5019513;28;45290;-65
2021/12/09 02:54:33;;;;;;;;;0.75;0.75;;;;;8.29;57.30;100179.44;5020146;28;45489;-65
2021/12/09 02:57:03;;;;;;;;;1.25;1.25;;;;;8.30;57.40;100181.16;5020079;28;45401;-65
2021/12/09 02:59:29;;;;;;;;;0.00;0.00;;;;;8.28;57.13;100173.22;5019913;28;47453;-65
2021/12/09 03:04:21;;;;;;;;;0.00;0.00;;;;;8.22;57.59;100175.22;5020146;28;45450;-65
2021/12/09 03:06:48;;;;;;;;;0.00;0.00;;;;;8.28;57.39;100198.97;5019840;28;45256;-65
2021/12/09 03:09:18;;;;;;;;;1.00;1.00;;;;;8.31;57.47;100188.22;5019638;28;46937;-65
2021/12/09 03:11:52;;;;;;;;;0.25;0.25;;;;;8.22;57.32;100192.06;5019769;28;45334;-65
2021/12/09 03:14:17;;;;;;;;;0.50;0.50;;;;;8.21;57.82;100187.66;5019921;28;45360;-65
2021/12/09 03:16:43;;;;;;;;;1.25;0.00;;;;;8.22;57.29;100196.47;5019767;28;45378;-65
2021/12/09 03:19:09;;;;;;;;;0.00;0.00;;;;;8.28;57.53;100193.66;5019676;28;45403;-66
2021/12/09 03:21:40;;;;;;;;;1.50;1.00;;;;;8.18;57.74;100178.91;5018525;28;45504;-65
2021/12/09 03:24:09;;;;;;;;;1.00;0.00;;;;;8.31;57.80;100193.56;5019715;28;45389;-65
2021/12/09 03:26:40;;;;;;;;;1.00;1.00;;;;;8.27;57.72;100186.56;5019665;28;45399;-65
2021/12/09 03:29:08;;;;;;;;;1.50;0.75;;;;;8.32;57.74;100201.47;5019449;28;45354;-65
2021/12/09 03:31:39;;;;;;;;;1.50;0.00;;;;;8.29;57.68;100184.75;5019319;28;45459;-65
2021/12/09 03:34:06;;;;;;;;;0.00;0.00;;;;;8.32;57.65;100196.16;5019902;28;45161;-65
2021/12/09 03:36:32;;;;;;;;;0.75;0.75;;;;;8.23;57.78;100187.59;5019225;28;45520;-65
2021/12/09 03:39:00;;;;;;;;;1.00;1.00;;;;;8.34;57.67;100212.94;5019475;28;45902;-65
2021/12/09 03:41:25;;;;;;;;;0.00;0.00;;;;;8.30;57.62;100205.97;5019464;28;45507;-65
2021/12/09 03:43:51;;;;;;;;;1.00;1.00;;;;;8.30;57.72;100207.75;5019903;28;45392;-65
2021/12/09 03:46:17;;;;;;;;;0.00;0.00;;;;;8.29;57.76;100219.31;5021629;28;45465;-65
2021/12/09 03:48:43;;;;;;;;;0.00;0.00;;;;;8.27;57.70;100213.16;5023032;28;45562;-65
2021/12/09 03:51:08;;;;;;;;;0.25;0.25;;;;;8.18;57.79;100211.66;5022367;28;45332;-65
2021/12/09 03:53:34;;;;;;;;;1.00;1.00;;;;;8.20;58.35;100216.94;5022940;28;45228;-65
2021/12/09 03:55:59;;;;;;;;;1.75;1.00;;;;;8.20;58.11;100227.56;5021099;28;45252;-65
2021/12/09 03:58:25;;;;;;;;;0.25;0.25;;;;;8.19;57.77;100216.06;5038098;28;48238;-65
2021/12/09 04:00:50;;;;;;;;;1.00;1.00;;;;;8.16;57.83;100216.16;5022887;28;45227;-65
2021/12/09 04:03:17;;;;;;;;;1.25;1.00;;;;;8.21;58.40;100224.00;5023024;28;45299;-65
2021/12/09 04:05:43;;;;;;;;;1.25;1.25;;;;;8.24;57.93;100232.75;5021362;28;45493;-65
2021/12/09 04:08:09;;;;;;;;;2.25;1.00;;;;;8.19;57.73;100229.38;5022704;28;46293;-65
2021/12/09 04:10:35;;;;;;;;;0.00;0.00;;;;;8.23;57.87;100233.66;5022506;28;45345;-65
2021/12/09 04:13:00;;;;;;;;;1.50;1.50;;;;;8.23;58.19;100228.34;5023084;28;45334;-65
2021/12/09 04:15:26;;;;;;;;;3.00;1.00;;;;;8.26;57.65;100227.41;5022488;28;45560;-65
2021/12/09 04:17:52;;;;;;;;;0.25;0.25;;;;;8.21;57.78;100226.66;5037969;28;47209;-65
2021/12/09 04:20:17;;;;;;;;;1.00;1.00;;;;;8.19;57.88;100228.50;5022324;28;45231;-65
2021/12/09 04:22:48;;;;;;;;;0.00;0.00;;;;;8.23;57.88;100238.97;5022053;28;45388;-65
2021/12/09 04:25:16;;;;;;;;;1.00;1.00;;;;;8.20;57.71;100230.22;5022219;28;45364;-65
2021/12/09 04:27:41;;;;;;;;;0.25;0.25;;;;;8.13;57.88;100221.56;5022414;28;45441;-65
2021/12/09 04:30:07;;;;;;;;;1.00;1.00;;;;;8.22;57.68;100229.28;5022242;28;45236;-65
2021/12/09 04:32:32;;;;;;;;;1.00;1.00;;;;;8.25;58.00;100233.63;5020050;28;45215;-65
2021/12/09 04:34:58;;;;;;;;;4.00;0.75;;;;;8.22;57.66;100236.38;5022320;28;45371;-65
2021/12/09 04:37:23;;;;;;;;;1.00;1.00;;;;;8.22;58.10;100229.28;5022143;28;46045;-65
2021/12/09 04:39:49;;;;;;;;;1.50;0.50;;;;;8.22;57.81;100241.69;5037352;28;45881;-65
2021/12/09 04:42:14;;;;;;;;;0.25;0.25;;;;;8.20;57.91;100238.22;5020710;28;45343;-65
2021/12/09 04:44:40;;;;;;;;;2.75;1.50;;;;;8.19;57.89;100236.50;5019820;28;45712;-65
2021/12/09 04:47:05;;;;;;;;;1.25;1.25;;;;;8.20;57.94;100232.88;5021166;28;45406;-65
2021/12/09 04:49:30;;;;;;;;;1.75;1.75;;;;;8.16;57.67;100229.47;5020384;28;45392;-65
2021/12/09 04:51:57;;;;;;;;;2.00;1.00;;;;;8.20;57.86;100241.72;5021788;28;45281;-65
2021/12/09 04:54:23;;;;;;;;;2.00;1.00;;;;;8.15;57.89;100231.25;5020193;28;45721;-65
2021/12/09 04:56:49;;;;;;;;;2.00;1.00;;;;;8.13;58.01;100230.41;5021602;28;45522;-65
2021/12/09 04:59:14;;;;;;;;;2.50;1.00;;;;;8.16;57.72;100243.63;5021708;28;45368;-65
2021/12/09 05:01:44;;;;;;;;;2.75;1.00;;;;;8.16;57.96;100234.78;5022122;28;45369;-65
2021/12/09 05:04:09;;;;;;;;;1.00;1.00;;;;;8.13;58.44;100242.84;5021721;28;45256;-65
2021/12/09 05:06:34;;;;;;;;;1.75;1.75;;;;;8.17;58.15;100247.16;5021734;28;45213;-65
2021/12/09 05:09:06;;;;;;;;;2.50;1.75;;;;;8.16;58.21;100245.41;5021764;28;45152;-65
2021/12/09 05:13:57;;;;;;;;;1.00;1.00;;;;;8.20;58.22;100248.84;5021468;28;45540;-65
2021/12/09 05:16:22;;;;;;;;;6.00;1.25;;;;;8.17;58.33;100239.19;5020750;28;45423;-65
2021/12/09 05:18:50;;;;;;;;;2.00;1.00;;;;;8.19;58.29;100249.78;5021130;28;45288;-65
2021/12/09 05:21:17;;;;;;;;;1.00;1.00;;;;;8.19;58.03;100247.13;5020911;28;45484;-65
2021/12/09 05:23:43;;;;;;;;;2.00;1.00;;;;;8.14;58.18;100241.94;5021664;28;45326;-65
2021/12/09 05:26:09;;;;;;;;;1.00;1.00;;;;;8.16;57.97;100245.41;5021315;28;46859;-65
2021/12/09 05:28:36;;;;;;;;;2.50;1.75;;;;;8.23;58.03;100246.09;5021438;28;45394;-65
2021/12/09 05:33:50;;;;;;;;;2.75;1.75;;;;;8.27;58.03;100253.94;5020601;28;45235;-65
2021/12/09 05:36:16;;;;;;;;;1.00;1.00;;;;;8.21;57.98;100245.28;5020732;28;46398;-65
2021/12/09 05:38:42;;;;;;;;;2.25;2.25;;;;;8.29;58.04;100262.72;5020587;28;45467;-65
2021/12/09 05:41:07;;;;;;;;;1.50;1.50;;;;;8.30;57.98;100252.97;5021172;28;45435;-66
2021/12/09 05:43:35;;;;;;;;;2.00;1.25;;;;;8.29;58.02;100251.25;5020507;28;45615;-65
2021/12/09 05:46:00;;;;;;;;;1.25;1.00;;;;;8.30;57.96;100261.81;5020787;28;46108;-65
2021/12/09 05:48:26;;;;;;;;;3.75;1.00;;;;;8.33;58.08;100271.47;5020770;28;45466;-65
2021/12/09 05:50:52;;;;;;;;;2.00;1.75;;;;;8.27;57.90;100248.63;5020883;28;45564;-65
2021/12/09 05:53:17;;;;;;;;;3.50;1.25;;;;;8.33;58.02;100259.03;5020643;28;45386;-65
2021/12/09 05:55:44;;;;;;;;;2.25;2.25;;;;;8.37;57.89;100262.50;5020641;28;45314;-65
2021/12/09 05:58:17;;;;;;;;;4.00;1.50;;;;;8.37;57.63;100262.50;5020829;28;45315;-65
2021/12/09 06:00:43;;;;;;;;;3.75;3.00;;;;;8.31;57.58;100255.56;5021261;28;45243;-66
2021/12/09 06:03:09;;;;;;;;;3.75;3.25;;;;;8.38;57.96;100260.72;5020488;28;45731;-65
2021/12/09 06:05:35;;;;;;;;;6.25;2.75;;;;;8.35;58.17;100264.31;5020209;28;46191;-65
2021/12/09 06:08:02;;;;;;;;;2.00;2.00;;;;;8.35;57.85;100266.97;5019553;28;45388;-65
2021/12/09 06:10:27;;;;;;;;;2.75;2.75;;;;;8.39;57.91;100267.78;5020727;28;45552;-65
2021/12/09 06:12:53;;;;;;;;;3.50;3.50;;;;;8.39;57.94;100278.41;5020745;28;45556;-65
2021/12/09 06:15:19;;;;;;;;;6.00;2.00;;;;;8.38;57.79;100277.53;5020483;28;45315;-65
2021/12/09 06:17:44;;;;;;;;;6.00;2.00;;;;;8.37;57.55;100270.50;5019959;28;45470;-65
2021/12/09 06:20:10;;;;;;;;;2.75;2.25;;;;;8.33;57.89;100263.50;5020618;28;45467;-65
2021/12/09 06:22:36;;;;;;;;;3.50;2.50;;;;;8.38;57.70;100280.19;5020505;28;45318;-65
2021/12/09 06:25:02;;;;;;;;;3.25;2.00;;;;;8.39;57.63;100281.09;5019442;28;45503;-65
2021/12/09 06:27:28;;;;;;;;;3.00;2.25;;;;;8.23;57.73;100256.72;5019088;28;46001;-65
2021/12/09 06:29:53;;;;;;;;;4.50;3.00;;;;;8.35;57.75;100282.94;5020593;28;45437;-65
2021/12/09 06:32:18;;;;;;;;;4.00;3.75;;;;;8.34;57.73;100287.41;5016541;28;45968;-65
2021/12/09 06:34:44;;;;;;;;;8.25;3.25;;;;;8.33;57.96;100287.44;5019377;28;46725;-65
2021/12/09 06:37:09;;;;;;;;;1.50;1.25;;;;;8.33;57.72;100288.31;5018758;28;45400;-65
2021/12/09 06:39:34;;;;;;;;;2.00;2.00;;;;;8.34;57.84;100290.06;5019504;28;45413;-65
2021/12/09 06:42:00;;;;;;;;;4.00;3.00;;;;;8.33;57.60;100279.47;5018819;28;48567;-65
2021/12/09 06:44:25;;;;;;;;;3.00;1.25;;;;;8.30;57.80;100279.56;5018702;28;45379;-66
2021/12/09 06:46:51;;;;;;;;;7.00;3.00;;;;;8.33;57.76;100293.63;5019706;28;45331;-65
2021/12/09 06:49:16;;;;;;;;;4.00;4.00;;;;;8.32;57.85;100305.19;5020409;28;45234;-65
2021/12/09 06:51:42;;;;;;;;;5.00;4.00;;;;;8.28;57.76;100297.34;5018668;28;45514;-66
2021/12/09 06:54:07;;;;;;;;;6.50;4.00;;;;;8.34;57.72;100310.47;5018442;28;45676;-68
2021/12/09 06:56:32;;;;;;;;;7.00;5.50;;;;;8.35;57.65;100310.44;5019579;28;46691;-68
2021/12/09 06:58:59;;;;;;;;;3.00;3.00;;;;;8.35;57.86;100305.09;5019721;28;45455;-69
2021/12/09 07:01:24;;;;;;;;;3.00;3.00;;;;;8.30;57.79;100309.69;5019328;28;45309;-69
2021/12/09 07:03:51;;;;;;;;;5.50;5.50;;;;;8.27;57.71;100303.56;5018971;28;46090;-69
2021/12/09 07:06:17;;;;;;;;;7.50;6.75;;;;;8.31;57.74;100316.75;5019277;28;45332;-70
2021/12/09 07:08:47;;;;;;;;;3.00;2.00;;;;;8.30;57.77;100320.34;5018488;28;45734;-70
2021/12/09 07:11:14;;;;;;;;;7.00;5.50;;;;;8.25;57.67;100306.31;5019552;28;45406;-66
2021/12/09 07:13:40;;;;;;;;;3.00;3.00;;;;;8.27;57.55;100317.75;5017898;28;46751;-66
2021/12/09 07:16:06;;;;;;;;;4.00;4.00;;;;;8.32;57.29;100317.63;5018826;28;45810;-66
2021/12/09 07:18:32;;;;;;;;;4.00;4.00;;;;;8.28;57.66;100305.31;5016605;28;45275;-66
2021/12/09 07:20:57;;;;;;;;;5.00;4.00;;;;;8.32;57.38;100321.16;5020828;28;45401;-65
2021/12/09 07:23:23;;;;;;;;;5.50;5.50;;;;;8.29;57.83;100317.72;5013564;28;45281;-66
2021/12/09 07:25:49;;;;;;;;;6.00;3.75;;;;;8.27;57.74;100306.22;5018473;28;45639;-66
2021/12/09 07:28:15;;;;;;;;;6.25;3.25;;;;;8.29;57.63;100318.56;5034830;28;45199;-66
2021/12/09 07:30:41;;;;;;;;;3.50;3.00;;;;;8.20;57.62;100302.88;5018591;28;45457;-65
2021/12/09 07:33:07;;;;;;;;;6.25;6.25;;;;;8.22;57.62;100297.53;5018748;28;46178;-66
2021/12/09 07:35:33;;;;;;;;;5.00;4.00;;;;;8.19;57.66;100294.97;5019620;28;45260;-66
2021/12/09 07:38:00;;;;;;;;;3.25;3.25;;;;;8.25;57.56;100318.72;5033672;28;45389;-66
2021/12/09 07:40:26;;;;;;;;;6.00;4.00;;;;;8.23;57.81;100307.25;5009180;28;45947;-65
2021/12/09 07:42:52;;;;;;;;;8.00;6.00;;;;;8.22;57.87;100313.47;5017303;28;46238;-66
2021/12/09 07:45:18;;;;;;;;;9.25;8.00;;;;;8.15;58.13;100300.38;5010063;28;45357;-66
2021/12/09 07:47:45;;;;;;;;;6.00;6.00;;;;;8.16;57.60;100312.75;5016391;28;45406;-66
2021/12/09 07:50:14;;;;;;;;;6.75;6.00;;;;;8.10;57.70;100298.75;5018980;28;45273;-66
2021/12/09 07:52:43;;;;;;;;;6.50;6.00;;;;;8.16;57.44;100320.72;5017754;28;45383;-66
2021/12/09 07:55:11;;;;;;;;;6.25;6.25;;;;;8.14;58.00;100313.72;5017554;28;45230;-66
2021/12/09 07:57:37;;;;;;;;;6.00;6.00;;;;;8.10;57.59;100314.72;5017153;28;45354;-65
2021/12/09 08:00:07;;;;;;;;;7.25;5.75;;;;;8.04;57.93;100304.28;5017059;28;45506;-65
2021/12/09 08:02:32;;;;;;;;;8.00;7.00;;;;;8.03;57.70;100318.47;5007285;28;46154;-65
2021/12/09 08:04:57;;;;;;;;;7.75;6.00;;;;;7.92;57.92;100310.81;5016514;28;45327;-65
2021/12/09 08:07:24;;;;;;;;;10.75;7.25;;;;;7.90;57.82;100318.81;5014994;28;45646;-65
2021/12/09 08:09:50;;;;;;;;;7.25;7.25;;;;;7.90;58.07;100316.16;5018159;28;45535;-65
2021/12/09 08:12:16;;;;;;;;;6.75;3.75;;;;;7.91;58.12;100311.72;5018348;28;45326;-66
2021/12/09 08:14:41;;;;;;;;;8.75;6.25;;;;;7.93;58.01;100309.88;5018437;28;45423;-65
2021/12/09 08:17:13;;;;;;;;;7.25;6.50;;;;;7.97;57.81;100331.03;5018131;28;45663;-66
2021/12/09 08:19:39;;;;;;;;;6.75;5.50;;;;;7.90;57.57;100317.94;5017352;28;45748;-66
2021/12/09 08:22:05;;;;;;;;;6.75;6.75;;;;;7.91;57.79;100327.66;5009659;28;45643;-66
2021/12/09 08:24:31;;;;;;;;;7.50;7.50;;;;;7.93;58.17;100323.16;5017202;28;45474;-66
2021/12/09 08:26:56;;;;;;;;;6.25;6.00;;;;;7.92;58.31;100326.75;5017923;28;45821;-65
2021/12/09 08:29:21;;;;;;;;;6.00;6.00;;;;;7.97;57.94;100315.06;5018191;28;45308;-66
2021/12/09 08:31:47;;;;;;;;;7.75;4.00;;;;;7.89;57.89;100311.75;5018584;28;45292;-66
2021/12/09 08:34:12;;;;;;;;;7.50;6.50;;;;;7.89;58.15;100325.03;5021227;28;45501;-66
2021/12/09 08:36:37;;;;;;;;;7.75;5.00;;;;;7.91;58.23;100332.97;5020903;28;45862;-66
2021/12/09 08:39:04;;;;;;;;;4.50;2.50;;;;;7.90;57.80;100328.56;5021275;28;45413;-66
2021/12/09 08:41:29;;;;;;;;;9.00;6.00;;;;;7.81;57.87;100315.56;5021380;28;45949;-66
2021/12/09 08:43:54;;;;;;;;;8.00;7.75;;;;;7.85;57.98;100326.06;5019829;28;45613;-66
2021/12/09 08:46:20;;;;;;;;;7.00;6.00;;;;;7.86;58.10;100334.91;5020565;28;45567;-66
2021/12/09 08:48:46;;;;;;;;;8.00;6.25;;;;;7.89;58.01;100329.50;5021040;28;45441;-66
2021/12/09 08:51:13;;;;;;;;;8.50;7.25;;;;;7.87;58.16;100326.88;5020853;28;47519;-66
2021/12/09 08:53:38;;;;;;;;;6.25;6.00;;;;;7.84;57.87;100331.41;5021293;28;45784;-66
2021/12/09 08:56:03;;;;;;;;;7.00;7.00;;;;;7.91;58.05;100343.59;5020394;28;45466;-66
2021/12/09 08:58:30;;;;;;;;;9.50;6.50;;;;;7.91;58.11;100341.81;5020734;28;45513;-66
2021/12/09 09:00:57;;;;;;;;;7.50;6.50;;;;;7.89;58.21;100350.75;5020834;28;46209;-66
2021/12/09 09:03:24;;;;;;;;;11.00;5.00;;;;;7.84;58.36;100348.22;5020389;28;45612;-66
2021/12/09 09:05:49;;;;;;;;;8.25;7.50;;;;;7.89;58.01;100350.75;5017382;28;46173;-66
2021/12/09 09:08:15;;;;;;;;;10.00;8.00;;;;;7.85;58.14;100349.09;5020020;28;45929;-66
2021/12/09 09:10:43;;;;;;;;;8.00;7.25;;;;;7.83;58.43;100348.25;5020945;28;45646;-66
2021/12/09 09:13:09;;;;;;;;;12.25;8.75;;;;;7.86;58.11;100351.69;5021786;28;45514;-66
2021/12/09 09:15:36;;;;;;;;;8.50;6.50;;;;;7.86;58.51;100350.84;5020315;28;45389;-66
2021/12/09 09:18:03;;;;;;;;;8.00;8.00;;;;;7.88;58.41;100356.97;5021553;28;45553;-66
2021/12/09 09:20:30;;;;;;;;;6.25;6.25;;;;;7.93;58.45;100369.22;5021290;28;45488;-66
2021/12/09 09:22:56;;;;;;;;;7.00;7.00;;;;;7.97;58.39;100372.69;5020355;28;45347;-66
2021/12/09 09:25:29;;;;;;;;;8.00;6.00;;;;;8.01;58.35;100382.31;5020563;28;45575;-65
2021/12/09 09:27:56;;;;;;;;;9.00;6.00;;;;;8.02;58.19;100372.53;5020323;28;45383;-66
2021/12/09 09:30:21;;;;;;;;;9.00;7.50;;;;;8.08;58.42;100373.22;5020275;28;45470;-66
2021/12/09 09:32:49;;;;;;;;;7.00;3.75;;;;;8.10;58.47;100381.16;5021131;28;45382;-66
2021/12/09 09:35:17;;;;;;;;;3.25;3.25;;;;;8.15;58.53;100382.81;5020827;28;45253;-66
2021/12/09 09:37:42;;;;;;;;;7.75;6.00;;;;;8.20;58.53;100381.78;5020285;28;45600;-66
2021/12/09 09:40:17;;;;;;;;;4.00;4.00;;;;;8.20;58.35;100381.78;5019046;28;47985;-66
2021/12/09 09:45:14;;;;;;;;;7.00;6.00;;;;;8.19;58.45;100380.06;5017202;28;45547;-66
2021/12/09 09:47:40;;;;;;;;;4.50;4.50;;;;;8.21;58.37;100394.19;5008757;28;45486;-66
2021/12/09 09:50:08;;;;;;;;;4.75;3.25;;;;;8.22;58.37;100395.91;5010822;28;47291;-66
2021/12/09 09:52:34;;;;;;;;;9.50;7.00;;;;;8.21;58.24;100387.06;5011898;28;45738;-67
2021/12/09 09:55:01;;;;;;;;;6.00;3.75;;;;;8.38;58.23;100412.31;5010625;28;45698;-66
2021/12/09 09:57:27;;;;;;;;;7.00;7.00;;;;;8.34;58.23;100403.56;5010707;28;45579;-66
2021/12/09 09:59:53;;;;;;;;;10.00;6.00;;;;;8.44;58.31;100409.53;5010473;28;46573;-66
2021/12/09 10:02:19;;;;;;;;;3.50;3.50;;;;;8.46;57.89;100405.88;5015383;28;47204;-66
2021/12/09 10:07:13;;;;;;;;;5.50;3.75;;;;;8.52;58.03;100396.88;5018754;28;45523;-65
2021/12/09 10:09:40;;;;;;;;;2.50;2.50;;;;;8.53;58.08;100396.78;5018621;28;45354;-67
2021/12/09 10:12:06;;;;;;;;;4.00;3.00;;;;;8.55;58.33;100393.22;5019849;28;45391;-66
2021/12/09 10:14:34;;;;;;;;;4.50;3.75;;;;;8.56;57.79;100392.31;5018999;28;45406;-68
2021/12/09 10:17:15;;;;;;;;;5.00;2.75;;;;;8.62;58.13;100390.34;5020182;28;45451;-67
2021/12/09 10:19:53;;;;;;;;;2.25;2.25;;;;;8.64;58.12;100399.16;5019551;28;45354;-67
2021/12/09 10:22:34;;;;;;;;;3.50;3.50;;;;;8.67;57.90;100392.84;5020176;28;45653;-67
2021/12/09 10:25:03;;;;;;;;;6.75;3.50;;;;;8.67;58.23;100388.41;5020043;28;45522;-69
2021/12/09 10:27:33;;;;;;;;;3.00;3.00;;;;;8.70;58.00;100379.47;5019683;28;45302;-67
2021/12/09 10:30:14;;;;;;;;;5.50;4.75;;;;;8.78;58.28;100376.56;5019582;28;45539;-67
2021/12/09 10:32:41;;;;;;;;;2.50;2.50;;;;;8.85;58.32;100375.47;5023644;28;45462;-67
2021/12/09 10:35:19;;;;;;;;;4.00;4.00;;;;;8.82;58.20;100365.78;5022022;28;45303;-67
2021/12/09 10:37:47;;;;;;;;;6.25;3.00;;;;;8.89;58.19;100377.13;5014298;28;45498;-67
2021/12/09 10:40:15;;;;;;;;;3.00;3.00;;;;;8.87;58.17;100363.84;5019346;28;45306;-67
2021/12/09 10:42:53;;;;;;;;;7.25;5.25;;;;;8.92;58.21;100362.81;5020101;28;45588;-67
2021/12/09 10:45:44;;;;;;;;;3.00;3.00;;;;;8.95;58.07;100358.28;5020078;28;45453;-67
2021/12/09 10:53:31;;;;;;;;;4.00;2.75;;;;;9.01;57.82;100351.91;5019515;28;45556;-65
2021/12/09 10:56:00;;;;;;;;;2.75;2.75;;;;;9.01;57.97;100351.91;5018083;28;45291;-66
2021/12/09 10:58:30;;;;;;;;;4.50;4.00;;;;;9.01;57.96;100351.91;5018188;28;45509;-66
2021/12/09 11:01:00;;;;;;;;;7.00;3.75;;;;;9.03;58.20;100344.72;5017284;28;46126;-69
2021/12/09 11:03:33;;;;;;;;;3.50;3.00;;;;;9.04;57.99;100344.69;5009085;28;45865;-69
2021/12/09 11:06:08;;;;;;;;;3.00;3.00;;;;;9.01;58.00;100338.59;5016445;28;45697;-66
2021/12/09 11:08:53;;;;;;;;;3.75;3.75;;;;;9.13;58.02;100347.97;5018860;28;45491;-66
2021/12/09 11:11:42;;;;;;;;;4.25;4.25;;;;;9.16;57.99;100342.53;5018394;28;47040;-65
2021/12/09 11:14:21;;;;;;;;;7.00;5.25;;;;;9.13;57.64;100338.19;5016658;28;45245;-66
2021/12/09 11:16:50;;;;;;;;;5.50;5.00;;;;;9.16;57.94;100342.53;5015219;28;45652;-66
2021/12/09 11:19:34;;;;;;;;;6.50;4.50;;;;;9.19;57.93;100335.31;5017649;28;45343;-66
2021/12/09 11:22:05;;;;;;;;;2.00;2.00;;;;;9.21;57.88;100329.94;5016113;28;45553;-66
2021/12/09 11:24:40;;;;;;;;;4.50;4.00;;;;;9.23;57.74;100331.63;5018400;28;45696;-66
2021/12/09 11:27:10;;;;;;;;;3.25;3.25;;;;;9.23;57.65;100323.63;5017334;28;45373;-66
2021/12/09 11:29:41;;;;;;;;;3.00;3.00;;;;;9.28;57.85;100332.34;5017111;28;45355;-66
2021/12/09 11:32:14;;;;;;;;;5.25;4.00;;;;;9.32;57.51;100324.25;5016711;28;45648;-66
2021/12/09 11:34:51;;;;;;;;;7.00;4.50;;;;;9.32;57.78;100318.91;5033214;28;45355;-66
2021/12/09 11:38:06;;;;;;;;;4.00;3.00;;;;;9.32;57.78;100322.47;5014306;28;45507;-66
2021/12/09 11:40:34;;;;;;;;;8.25;4.25;;;;;9.32;57.70;100318.91;5015558;28;45569;-66
2021/12/09 11:43:01;;;;;;;;;9.00;7.00;;;;;9.38;57.61;100329.38;5014827;28;46149;-66
2021/12/09 11:45:40;;;;;;;;;5.25;5.25;;;;;9.41;57.84;100324.81;5016393;28;45718;-66
2021/12/09 11:48:07;;;;;;;;;6.50;6.50;;;;;9.34;58.03;100303.75;5017173;28;45473;-66
2021/12/09 11:50:36;;;;;;;;;9.50;7.00;;;;;9.44;57.43;100314.06;5016190;28;45504;-66
2021/12/09 11:53:06;;;;;;;;;5.00;5.00;;;;;9.49;57.90;100316.56;5017422;28;45424;-66